sensor_id;sensor_type;location;lat;lon;timestamp;P1;durP1;ratioP1;P2;durP2;ratioP2
63110;SDS011;49201;53.426;10.300;2023-05-14T00:00:41;5.87;;;5.10;;
63110;SDS011;49201;53.426;10.300;2023-05-14T00:03:06;6.93;;;5.50;;
63110;SDS011;49201;53.426;10.300;2023-05-14T00:05:31;5.73;;;4.73;;
63110;SDS011;49201;53.426;10.300;2023-05-14T00:07:57;5.33;;;4.80;;
63110;SDS011;49201;53.426;10.300;2023-05-14T00:10:22;6.40;;;5.80;;
63110;SDS011;49201;53.426;10.300;2023-05-14T00:12:49;6.73;;;6.10;;
63110;SDS011;49201;53.426;10.300;2023-05-14T00:15:15;6.53;;;5.70;;
63110;SDS011;49201;53.426;10.300;2023-05-14T00:17:41;8.23;;;6.10;;
63110;SDS011;49201;53.426;10.300;2023-05-14T00:20:06;8.80;;;6.67;;
63110;SDS011;49201;53.426;10.300;2023-05-14T00:22:32;6.83;;;5.70;;
63110;SDS011;49201;53.426;10.300;2023-05-14T00:24:58;6.97;;;4.97;;
63110;SDS011;49201;53.426;10.300;2023-05-14T00:27:24;9.17;;;5.50;;
63110;SDS011;49201;53.426;10.300;2023-05-14T00:29:50;7.00;;;5.13;;
63110;SDS011;49201;53.426;10.300;2023-05-14T00:32:16;6.70;;;4.90;;
63110;SDS011;49201;53.426;10.300;2023-05-14T00:34:41;5.30;;;4.80;;
63110;SDS011;49201;53.426;10.300;2023-05-14T00:37:07;6.27;;;5.67;;
63110;SDS011;49201;53.426;10.300;2023-05-14T00:39:32;7.87;;;5.83;;
63110;SDS011;49201;53.426;10.300;2023-05-14T00:41:58;8.27;;;5.50;;
63110;SDS011;49201;53.426;10.300;2023-05-14T00:44:24;5.80;;;5.30;;
63110;SDS011;49201;53.426;10.300;2023-05-14T00:46:49;6.43;;;5.10;;
63110;SDS011;49201;53.426;10.300;2023-05-14T00:49:15;5.93;;;5.07;;
63110;SDS011;49201;53.426;10.300;2023-05-14T00:51:41;8.03;;;5.20;;
63110;SDS011;49201;53.426;10.300;2023-05-14T00:54:11;7.47;;;5.70;;
63110;SDS011;49201;53.426;10.300;2023-05-14T00:56:40;7.13;;;5.33;;
63110;SDS011;49201;53.426;10.300;2023-05-14T00:59:10;7.27;;;5.93;;
63110;SDS011;49201;53.426;10.300;2023-05-14T01:01:36;7.10;;;5.20;;
63110;SDS011;49201;53.426;10.300;2023-05-14T01:04:02;7.50;;;5.50;;
63110;SDS011;49201;53.426;10.300;2023-05-14T01:16:57;6.10;;;5.50;;
63110;SDS011;49201;53.426;10.300;2023-05-14T01:19:32;9.73;;;5.70;;
63110;SDS011;49201;53.426;10.300;2023-05-14T01:22:01;8.20;;;5.93;;
63110;SDS011;49201;53.426;10.300;2023-05-14T01:24:26;14.93;;;5.77;;
63110;SDS011;49201;53.426;10.300;2023-05-14T01:26:54;6.73;;;6.03;;
63110;SDS011;49201;53.426;10.300;2023-05-14T01:29:30;7.97;;;5.57;;
63110;SDS011;49201;53.426;10.300;2023-05-14T01:31:58;7.93;;;5.87;;
63110;SDS011;49201;53.426;10.300;2023-05-14T01:34:25;7.57;;;5.77;;
63110;SDS011;49201;53.426;10.300;2023-05-14T01:36:54;7.87;;;5.60;;
63110;SDS011;49201;53.426;10.300;2023-05-14T01:39:22;7.93;;;6.10;;
63110;SDS011;49201;53.426;10.300;2023-05-14T01:41:49;7.10;;;5.40;;
63110;SDS011;49201;53.426;10.300;2023-05-14T01:44:16;6.70;;;6.00;;
63110;SDS011;49201;53.426;10.300;2023-05-14T01:46:42;7.43;;;6.30;;
63110;SDS011;49201;53.426;10.300;2023-05-14T01:49:08;6.40;;;5.80;;
63110;SDS011;49201;53.426;10.300;2023-05-14T01:51:33;6.70;;;6.00;;
63110;SDS011;49201;53.426;10.300;2023-05-14T01:53:59;6.70;;;6.10;;
63110;SDS011;49201;53.426;10.300;2023-05-14T01:56:24;7.97;;;6.47;;
63110;SDS011;49201;53.426;10.300;2023-05-14T01:58:50;9.40;;;6.23;;
63110;SDS011;49201;53.426;10.300;2023-05-14T02:01:15;10.67;;;6.77;;
63110;SDS011;49201;53.426;10.300;2023-05-14T02:03:41;7.03;;;6.37;;
63110;SDS011;49201;53.426;10.300;2023-05-14T02:06:06;7.00;;;6.40;;
63110;SDS011;49201;53.426;10.300;2023-05-14T02:08:32;6.87;;;6.17;;
63110;SDS011;49201;53.426;10.300;2023-05-14T02:10:57;8.13;;;6.67;;
63110;SDS011;49201;53.426;10.300;2023-05-14T02:13:24;8.87;;;6.50;;
63110;SDS011;49201;53.426;10.300;2023-05-14T02:15:50;7.00;;;6.40;;
63110;SDS011;49201;53.426;10.300;2023-05-14T02:18:16;7.10;;;6.40;;
63110;SDS011;49201;53.426;10.300;2023-05-14T02:20:41;8.03;;;6.53;;
63110;SDS011;49201;53.426;10.300;2023-05-14T02:23:07;7.07;;;6.37;;
63110;SDS011;49201;53.426;10.300;2023-05-14T02:25:32;6.77;;;6.00;;
63110;SDS011;49201;53.426;10.300;2023-05-14T02:27:58;7.50;;;6.57;;
63110;SDS011;49201;53.426;10.300;2023-05-14T02:30:23;6.83;;;6.20;;
63110;SDS011;49201;53.426;10.300;2023-05-14T02:32:49;6.77;;;6.03;;
63110;SDS011;49201;53.426;10.300;2023-05-14T02:35:14;7.63;;;6.40;;
63110;SDS011;49201;53.426;10.300;2023-05-14T02:37:40;6.90;;;6.20;;
63110;SDS011;49201;53.426;10.300;2023-05-14T02:40:05;8.83;;;6.80;;
63110;SDS011;49201;53.426;10.300;2023-05-14T02:42:31;9.27;;;6.23;;
63110;SDS011;49201;53.426;10.300;2023-05-14T02:44:57;9.33;;;7.07;;
63110;SDS011;49201;53.426;10.300;2023-05-14T02:47:22;8.90;;;6.50;;
63110;SDS011;49201;53.426;10.300;2023-05-14T02:49:48;7.90;;;7.10;;
63110;SDS011;49201;53.426;10.300;2023-05-14T02:52:14;8.20;;;6.53;;
63110;SDS011;49201;53.426;10.300;2023-05-14T02:54:39;7.53;;;6.83;;
63110;SDS011;49201;53.426;10.300;2023-05-14T02:57:05;7.67;;;6.93;;
63110;SDS011;49201;53.426;10.300;2023-05-14T02:59:30;9.17;;;7.00;;
63110;SDS011;49201;53.426;10.300;2023-05-14T03:01:55;8.70;;;7.80;;
63110;SDS011;49201;53.426;10.300;2023-05-14T03:04:22;7.97;;;7.03;;
63110;SDS011;49201;53.426;10.300;2023-05-14T03:06:47;8.87;;;8.03;;
63110;SDS011;49201;53.426;10.300;2023-05-14T03:09:13;11.17;;;9.77;;
63110;SDS011;49201;53.426;10.300;2023-05-14T03:11:38;10.33;;;9.33;;
63110;SDS011;49201;53.426;10.300;2023-05-14T03:14:04;10.63;;;9.23;;
63110;SDS011;49201;53.426;10.300;2023-05-14T03:16:29;10.33;;;9.30;;
63110;SDS011;49201;53.426;10.300;2023-05-14T03:18:55;10.27;;;9.27;;
63110;SDS011;49201;53.426;10.300;2023-05-14T03:21:20;10.87;;;8.50;;
63110;SDS011;49201;53.426;10.300;2023-05-14T03:23:47;10.10;;;9.07;;
63110;SDS011;49201;53.426;10.300;2023-05-14T03:26:12;9.33;;;8.33;;
63110;SDS011;49201;53.426;10.300;2023-05-14T03:28:38;9.33;;;8.43;;
63110;SDS011;49201;53.426;10.300;2023-05-14T03:31:04;9.13;;;7.90;;
63110;SDS011;49201;53.426;10.300;2023-05-14T03:33:30;9.00;;;7.60;;
63110;SDS011;49201;53.426;10.300;2023-05-14T03:35:55;10.07;;;7.80;;
63110;SDS011;49201;53.426;10.300;2023-05-14T03:38:21;10.10;;;8.03;;
63110;SDS011;49201;53.426;10.300;2023-05-14T03:40:46;9.40;;;7.60;;
63110;SDS011;49201;53.426;10.300;2023-05-14T03:43:12;8.57;;;7.73;;
63110;SDS011;49201;53.426;10.300;2023-05-14T03:45:37;8.77;;;7.87;;
63110;SDS011;49201;53.426;10.300;2023-05-14T03:48:04;8.67;;;7.63;;
63110;SDS011;49201;53.426;10.300;2023-05-14T03:50:31;9.00;;;8.17;;
63110;SDS011;49201;53.426;10.300;2023-05-14T03:52:56;9.20;;;7.70;;
63110;SDS011;49201;53.426;10.300;2023-05-14T03:55:22;9.27;;;7.40;;
63110;SDS011;49201;53.426;10.300;2023-05-14T03:57:47;9.20;;;8.30;;
63110;SDS011;49201;53.426;10.300;2023-05-14T04:00:13;9.83;;;8.03;;
63110;SDS011;49201;53.426;10.300;2023-05-14T04:02:42;9.33;;;8.17;;
63110;SDS011;49201;53.426;10.300;2023-05-14T04:05:08;8.87;;;7.97;;
63110;SDS011;49201;53.426;10.300;2023-05-14T04:07:33;11.40;;;8.43;;
63110;SDS011;49201;53.426;10.300;2023-05-14T04:09:59;12.43;;;8.03;;
63110;SDS011;49201;53.426;10.300;2023-05-14T04:12:25;9.67;;;8.70;;
63110;SDS011;49201;53.426;10.300;2023-05-14T04:14:51;8.83;;;7.93;;
63110;SDS011;49201;53.426;10.300;2023-05-14T04:17:17;9.23;;;8.23;;
63110;SDS011;49201;53.426;10.300;2023-05-14T04:19:42;10.80;;;8.33;;
63110;SDS011;49201;53.426;10.300;2023-05-14T04:22:08;12.07;;;7.93;;
63110;SDS011;49201;53.426;10.300;2023-05-14T04:24:33;10.97;;;8.00;;
63110;SDS011;49201;53.426;10.300;2023-05-14T04:26:59;10.13;;;8.03;;
63110;SDS011;49201;53.426;10.300;2023-05-14T04:29:24;8.40;;;7.67;;
63110;SDS011;49201;53.426;10.300;2023-05-14T04:31:50;9.83;;;8.70;;
63110;SDS011;49201;53.426;10.300;2023-05-14T04:34:15;11.73;;;7.97;;
63110;SDS011;49201;53.426;10.300;2023-05-14T04:36:40;8.70;;;7.67;;
63110;SDS011;49201;53.426;10.300;2023-05-14T04:39:06;9.77;;;8.43;;
63110;SDS011;49201;53.426;10.300;2023-05-14T04:41:33;9.17;;;7.83;;
63110;SDS011;49201;53.426;10.300;2023-05-14T04:43:59;9.33;;;8.00;;
63110;SDS011;49201;53.426;10.300;2023-05-14T04:46:26;9.63;;;8.50;;
63110;SDS011;49201;53.426;10.300;2023-05-14T04:48:51;9.73;;;8.13;;
63110;SDS011;49201;53.426;10.300;2023-05-14T04:51:17;9.07;;;8.27;;
63110;SDS011;49201;53.426;10.300;2023-05-14T04:53:42;9.97;;;7.67;;
63110;SDS011;49201;53.426;10.300;2023-05-14T04:56:08;8.67;;;7.77;;
63110;SDS011;49201;53.426;10.300;2023-05-14T04:58:34;11.10;;;8.73;;
63110;SDS011;49201;53.426;10.300;2023-05-14T05:01:00;9.93;;;7.97;;
63110;SDS011;49201;53.426;10.300;2023-05-14T05:03:26;9.47;;;8.43;;
63110;SDS011;49201;53.426;10.300;2023-05-14T05:05:52;10.50;;;7.63;;
63110;SDS011;49201;53.426;10.300;2023-05-14T05:08:17;8.83;;;7.97;;
63110;SDS011;49201;53.426;10.300;2023-05-14T05:10:43;9.63;;;8.07;;
63110;SDS011;49201;53.426;10.300;2023-05-14T05:13:08;8.80;;;8.00;;
63110;SDS011;49201;53.426;10.300;2023-05-14T05:15:34;9.67;;;8.67;;
63110;SDS011;49201;53.426;10.300;2023-05-14T05:17:59;8.63;;;7.73;;
63110;SDS011;49201;53.426;10.300;2023-05-14T05:20:24;12.13;;;7.97;;
63110;SDS011;49201;53.426;10.300;2023-05-14T05:22:52;9.63;;;8.33;;
63110;SDS011;49201;53.426;10.300;2023-05-14T05:25:17;9.83;;;8.30;;
63110;SDS011;49201;53.426;10.300;2023-05-14T05:27:43;9.17;;;8.00;;
63110;SDS011;49201;53.426;10.300;2023-05-14T05:30:08;9.07;;;8.13;;
63110;SDS011;49201;53.426;10.300;2023-05-14T05:32:34;9.20;;;8.03;;
63110;SDS011;49201;53.426;10.300;2023-05-14T05:35:00;12.50;;;7.93;;
63110;SDS011;49201;53.426;10.300;2023-05-14T05:37:25;8.87;;;7.60;;
63110;SDS011;49201;53.426;10.300;2023-05-14T05:39:51;8.23;;;7.43;;
63110;SDS011;49201;53.426;10.300;2023-05-14T05:42:16;8.67;;;7.80;;
63110;SDS011;49201;53.426;10.300;2023-05-14T05:44:41;10.13;;;8.07;;
63110;SDS011;49201;53.426;10.300;2023-05-14T05:47:07;12.07;;;7.87;;
63110;SDS011;49201;53.426;10.300;2023-05-14T05:49:32;8.50;;;7.80;;
63110;SDS011;49201;53.426;10.300;2023-05-14T05:51:58;9.00;;;7.63;;
63110;SDS011;49201;53.426;10.300;2023-05-14T05:54:23;10.73;;;8.27;;
63110;SDS011;49201;53.426;10.300;2023-05-14T05:56:49;9.47;;;8.57;;
63110;SDS011;49201;53.426;10.300;2023-05-14T05:59:15;9.83;;;8.80;;
63110;SDS011;49201;53.426;10.300;2023-05-14T06:01:40;9.33;;;8.20;;
63110;SDS011;49201;53.426;10.300;2023-05-14T06:04:07;9.67;;;8.77;;
63110;SDS011;49201;53.426;10.300;2023-05-14T06:06:33;10.40;;;8.40;;
63110;SDS011;49201;53.426;10.300;2023-05-14T06:08:59;9.60;;;8.60;;
63110;SDS011;49201;53.426;10.300;2023-05-14T06:11:26;10.30;;;8.07;;
63110;SDS011;49201;53.426;10.300;2023-05-14T06:13:51;12.13;;;7.93;;
63110;SDS011;49201;53.426;10.300;2023-05-14T06:16:17;9.27;;;8.23;;
63110;SDS011;49201;53.426;10.300;2023-05-14T06:18:43;10.17;;;8.57;;
63110;SDS011;49201;53.426;10.300;2023-05-14T06:21:08;9.47;;;8.37;;
63110;SDS011;49201;53.426;10.300;2023-05-14T06:23:33;8.53;;;7.73;;
63110;SDS011;49201;53.426;10.300;2023-05-14T06:25:59;8.60;;;7.70;;
63110;SDS011;49201;53.426;10.300;2023-05-14T06:28:24;9.40;;;8.23;;
63110;SDS011;49201;53.426;10.300;2023-05-14T06:30:50;10.73;;;7.67;;
63110;SDS011;49201;53.426;10.300;2023-05-14T06:33:15;8.97;;;7.80;;
63110;SDS011;49201;53.426;10.300;2023-05-14T06:35:41;8.07;;;7.30;;
63110;SDS011;49201;53.426;10.300;2023-05-14T06:38:06;7.77;;;6.80;;
63110;SDS011;49201;53.426;10.300;2023-05-14T06:40:32;7.27;;;6.67;;
63110;SDS011;49201;53.426;10.300;2023-05-14T06:42:57;7.27;;;6.20;;
63110;SDS011;49201;53.426;10.300;2023-05-14T06:45:22;7.50;;;6.73;;
63110;SDS011;49201;53.426;10.300;2023-05-14T06:47:48;6.33;;;5.73;;
63110;SDS011;49201;53.426;10.300;2023-05-14T06:50:13;7.17;;;6.40;;
63110;SDS011;49201;53.426;10.300;2023-05-14T06:52:39;7.80;;;6.43;;
63110;SDS011;49201;53.426;10.300;2023-05-14T06:55:05;6.67;;;5.97;;
63110;SDS011;49201;53.426;10.300;2023-05-14T06:57:30;10.13;;;5.40;;
63110;SDS011;49201;53.426;10.300;2023-05-14T06:59:56;6.93;;;6.23;;
63110;SDS011;49201;53.426;10.300;2023-05-14T07:02:21;7.30;;;6.00;;
63110;SDS011;49201;53.426;10.300;2023-05-14T07:04:47;7.40;;;6.30;;
63110;SDS011;49201;53.426;10.300;2023-05-14T07:07:12;6.40;;;5.30;;
63110;SDS011;49201;53.426;10.300;2023-05-14T07:09:40;6.97;;;5.80;;
63110;SDS011;49201;53.426;10.300;2023-05-14T07:12:06;6.33;;;5.70;;
63110;SDS011;49201;53.426;10.300;2023-05-14T07:14:32;6.97;;;5.67;;
63110;SDS011;49201;53.426;10.300;2023-05-14T07:16:58;6.30;;;5.73;;
63110;SDS011;49201;53.426;10.300;2023-05-14T07:19:24;6.40;;;5.80;;
63110;SDS011;49201;53.426;10.300;2023-05-14T07:21:52;6.63;;;5.83;;
63110;SDS011;49201;53.426;10.300;2023-05-14T07:24:18;6.20;;;5.70;;
63110;SDS011;49201;53.426;10.300;2023-05-14T07:26:43;6.10;;;5.53;;
63110;SDS011;49201;53.426;10.300;2023-05-14T07:29:09;5.93;;;5.23;;
63110;SDS011;49201;53.426;10.300;2023-05-14T07:31:34;6.27;;;5.63;;
63110;SDS011;49201;53.426;10.300;2023-05-14T07:34:00;5.00;;;4.50;;
63110;SDS011;49201;53.426;10.300;2023-05-14T07:36:25;9.03;;;5.23;;
63110;SDS011;49201;53.426;10.300;2023-05-14T07:38:51;6.93;;;5.93;;
63110;SDS011;49201;53.426;10.300;2023-05-14T07:41:17;7.63;;;6.40;;
63110;SDS011;49201;53.426;10.300;2023-05-14T07:43:42;5.37;;;4.43;;
63110;SDS011;49201;53.426;10.300;2023-05-14T07:46:07;6.10;;;4.87;;
63110;SDS011;49201;53.426;10.300;2023-05-14T07:48:33;4.77;;;4.17;;
63110;SDS011;49201;53.426;10.300;2023-05-14T07:50:58;6.53;;;4.47;;
63110;SDS011;49201;53.426;10.300;2023-05-14T07:53:24;5.70;;;4.87;;
63110;SDS011;49201;53.426;10.300;2023-05-14T07:55:50;5.73;;;5.23;;
63110;SDS011;49201;53.426;10.300;2023-05-14T07:58:16;5.53;;;4.13;;
63110;SDS011;49201;53.426;10.300;2023-05-14T08:00:41;5.87;;;3.63;;
63110;SDS011;49201;53.426;10.300;2023-05-14T08:03:07;3.97;;;3.67;;
63110;SDS011;49201;53.426;10.300;2023-05-14T08:05:32;4.40;;;4.00;;
63110;SDS011;49201;53.426;10.300;2023-05-14T08:07:58;4.63;;;4.20;;
63110;SDS011;49201;53.426;10.300;2023-05-14T08:10:23;4.40;;;4.00;;
63110;SDS011;49201;53.426;10.300;2023-05-14T08:12:49;4.40;;;4.00;;
63110;SDS011;49201;53.426;10.300;2023-05-14T08:15:14;4.43;;;3.70;;
63110;SDS011;49201;53.426;10.300;2023-05-14T08:17:40;4.40;;;3.50;;
63110;SDS011;49201;53.426;10.300;2023-05-14T08:20:05;5.20;;;4.03;;
63110;SDS011;49201;53.426;10.300;2023-05-14T08:22:31;5.40;;;4.13;;
63110;SDS011;49201;53.426;10.300;2023-05-14T08:24:57;4.93;;;3.90;;
63110;SDS011;49201;53.426;10.300;2023-05-14T08:27:23;4.17;;;3.50;;
63110;SDS011;49201;53.426;10.300;2023-05-14T08:29:49;5.53;;;3.87;;
63110;SDS011;49201;53.426;10.300;2023-05-14T08:32:15;8.13;;;3.90;;
63110;SDS011;49201;53.426;10.300;2023-05-14T08:34:40;8.37;;;3.90;;
63110;SDS011;49201;53.426;10.300;2023-05-14T08:37:06;5.17;;;4.13;;
63110;SDS011;49201;53.426;10.300;2023-05-14T08:39:31;4.27;;;3.60;;
63110;SDS011;49201;53.426;10.300;2023-05-14T08:41:57;4.03;;;3.07;;
63110;SDS011;49201;53.426;10.300;2023-05-14T08:47:26;3.50;;;3.00;;
63110;SDS011;49201;53.426;10.300;2023-05-14T08:50:00;3.80;;;3.23;;
63110;SDS011;49201;53.426;10.300;2023-05-14T08:52:30;4.63;;;3.33;;
63110;SDS011;49201;53.426;10.300;2023-05-14T08:54:57;3.60;;;3.30;;
63110;SDS011;49201;53.426;10.300;2023-05-14T08:57:24;4.10;;;3.23;;
63110;SDS011;49201;53.426;10.300;2023-05-14T08:59:51;4.93;;;3.40;;
63110;SDS011;49201;53.426;10.300;2023-05-14T09:02:17;3.93;;;3.10;;
63110;SDS011;49201;53.426;10.300;2023-05-14T09:04:46;6.73;;;3.53;;
63110;SDS011;49201;53.426;10.300;2023-05-14T09:07:14;3.95;;;3.53;;
63110;SDS011;49201;53.426;10.300;2023-05-14T09:09:40;4.85;;;3.08;;
63110;SDS011;49201;53.426;10.300;2023-05-14T09:12:05;10.45;;;3.50;;
63110;SDS011;49201;53.426;10.300;2023-05-14T09:14:31;4.80;;;3.33;;
63110;SDS011;49201;53.426;10.300;2023-05-14T09:16:57;4.00;;;3.45;;
63110;SDS011;49201;53.426;10.300;2023-05-14T09:19:23;4.93;;;3.78;;
63110;SDS011;49201;53.426;10.300;2023-05-14T09:21:49;8.05;;;3.20;;
63110;SDS011;49201;53.426;10.300;2023-05-14T09:24:19;5.27;;;3.37;;
63110;SDS011;49201;53.426;10.300;2023-05-14T09:26:48;4.37;;;3.10;;
63110;SDS011;49201;53.426;10.300;2023-05-14T09:29:17;3.85;;;3.30;;
63110;SDS011;49201;53.426;10.300;2023-05-14T09:31:43;9.30;;;3.67;;
63110;SDS011;49201;53.426;10.300;2023-05-14T09:34:09;4.23;;;3.00;;
63110;SDS011;49201;53.426;10.300;2023-05-14T09:36:35;6.23;;;3.17;;
63110;SDS011;49201;53.426;10.300;2023-05-14T09:39:02;6.97;;;3.10;;
63110;SDS011;49201;53.426;10.300;2023-05-14T09:41:28;6.40;;;2.83;;
63110;SDS011;49201;53.426;10.300;2023-05-14T09:43:53;6.40;;;3.30;;
63110;SDS011;49201;53.426;10.300;2023-05-14T09:46:20;4.47;;;3.03;;
63110;SDS011;49201;53.426;10.300;2023-05-14T09:48:47;4.85;;;2.67;;
63110;SDS011;49201;53.426;10.300;2023-05-14T09:51:13;3.65;;;2.60;;
63110;SDS011;49201;53.426;10.300;2023-05-14T09:53:39;4.15;;;2.90;;
63110;SDS011;49201;53.426;10.300;2023-05-14T09:56:05;4.15;;;2.75;;
63110;SDS011;49201;53.426;10.300;2023-05-14T09:58:31;3.25;;;2.95;;
63110;SDS011;49201;53.426;10.300;2023-05-14T10:00:56;3.45;;;2.75;;
63110;SDS011;49201;53.426;10.300;2023-05-14T10:03:23;3.45;;;3.15;;
63110;SDS011;49201;53.426;10.300;2023-05-14T10:05:51;5.32;;;2.95;;
63110;SDS011;49201;53.426;10.300;2023-05-14T10:08:26;4.25;;;3.13;;
63110;SDS011;49201;53.426;10.300;2023-05-14T10:10:55;3.83;;;3.40;;
63110;SDS011;49201;53.426;10.300;2023-05-14T10:13:23;7.70;;;3.20;;
63110;SDS011;49201;53.426;10.300;2023-05-14T10:16:07;3.33;;;3.03;;
63110;SDS011;49201;53.426;10.300;2023-05-14T10:18:42;4.60;;;3.47;;
63110;SDS011;49201;53.426;10.300;2023-05-14T10:21:12;4.37;;;3.47;;
63110;SDS011;49201;53.426;10.300;2023-05-14T10:23:38;3.85;;;3.15;;
63110;SDS011;49201;53.426;10.300;2023-05-14T10:26:05;6.60;;;3.20;;
63110;SDS011;49201;53.426;10.300;2023-05-14T10:28:32;3.53;;;3.20;;
63110;SDS011;49201;53.426;10.300;2023-05-14T10:30:58;4.60;;;3.35;;
63110;SDS011;49201;53.426;10.300;2023-05-14T10:33:24;6.30;;;3.70;;
63110;SDS011;49201;53.426;10.300;2023-05-14T10:38:33;5.40;;;3.50;;
63110;SDS011;49201;53.426;10.300;2023-05-14T10:41:04;4.17;;;3.77;;
63110;SDS011;49201;53.426;10.300;2023-05-14T10:43:38;3.97;;;3.50;;
63110;SDS011;49201;53.426;10.300;2023-05-14T10:46:04;3.57;;;3.27;;
63110;SDS011;49201;53.426;10.300;2023-05-14T10:48:31;3.60;;;3.30;;
63110;SDS011;49201;53.426;10.300;2023-05-14T10:50:57;4.30;;;3.90;;
63110;SDS011;49201;53.426;10.300;2023-05-14T10:53:37;6.47;;;3.80;;
63110;SDS011;49201;53.426;10.300;2023-05-14T10:56:11;6.00;;;3.60;;
63110;SDS011;49201;53.426;10.300;2023-05-14T10:58:38;4.10;;;3.67;;
63110;SDS011;49201;53.426;10.300;2023-05-14T11:01:06;3.30;;;3.00;;
63110;SDS011;49201;53.426;10.300;2023-05-14T11:03:37;4.80;;;3.30;;
63110;SDS011;49201;53.426;10.300;2023-05-14T11:06:08;3.70;;;3.17;;
63110;SDS011;49201;53.426;10.300;2023-05-14T11:08:34;3.63;;;3.30;;
63110;SDS011;49201;53.426;10.300;2023-05-14T11:11:00;3.93;;;3.40;;
63110;SDS011;49201;53.426;10.300;2023-05-14T11:13:26;3.33;;;3.03;;
63110;SDS011;49201;53.426;10.300;2023-05-14T11:15:52;3.63;;;3.03;;
63110;SDS011;49201;53.426;10.300;2023-05-14T11:18:27;4.23;;;3.40;;
63110;SDS011;49201;53.426;10.300;2023-05-14T11:21:01;6.13;;;3.70;;
63110;SDS011;49201;53.426;10.300;2023-05-14T11:23:27;5.53;;;3.30;;
63110;SDS011;49201;53.426;10.300;2023-05-14T11:25:53;5.73;;;3.23;;
63110;SDS011;49201;53.426;10.300;2023-05-14T11:28:21;5.90;;;3.40;;
63110;SDS011;49201;53.426;10.300;2023-05-14T11:30:47;5.93;;;3.97;;
63110;SDS011;49201;53.426;10.300;2023-05-14T11:33:17;3.93;;;3.13;;
63110;SDS011;49201;53.426;10.300;2023-05-14T11:35:43;3.53;;;3.10;;
63110;SDS011;49201;53.426;10.300;2023-05-14T11:38:17;4.77;;;3.50;;
63110;SDS011;49201;53.426;10.300;2023-05-14T11:40:57;4.80;;;3.37;;
63110;SDS011;49201;53.426;10.300;2023-05-14T11:43:24;6.40;;;3.20;;
63110;SDS011;49201;53.426;10.300;2023-05-14T11:45:53;5.53;;;3.60;;
63110;SDS011;49201;53.426;10.300;2023-05-14T11:48:19;5.80;;;3.40;;
63110;SDS011;49201;53.426;10.300;2023-05-14T11:50:49;5.70;;;3.73;;
63110;SDS011;49201;53.426;10.300;2023-05-14T11:53:17;4.63;;;3.40;;
63110;SDS011;49201;53.426;10.300;2023-05-14T11:55:50;5.30;;;3.67;;
63110;SDS011;49201;53.426;10.300;2023-05-14T11:58:18;3.80;;;3.30;;
63110;SDS011;49201;53.426;10.300;2023-05-14T12:00:44;3.80;;;3.37;;
63110;SDS011;49201;53.426;10.300;2023-05-14T12:03:09;4.00;;;3.60;;
63110;SDS011;49201;53.426;10.300;2023-05-14T12:05:38;6.07;;;3.67;;
63110;SDS011;49201;53.426;10.300;2023-05-14T12:08:20;3.93;;;3.40;;
63110;SDS011;49201;53.426;10.300;2023-05-14T12:10:46;4.07;;;3.27;;
63110;SDS011;49201;53.426;10.300;2023-05-14T12:13:13;5.77;;;3.40;;
63110;SDS011;49201;53.426;10.300;2023-05-14T12:15:43;3.73;;;3.13;;
63110;SDS011;49201;53.426;10.300;2023-05-14T12:18:09;4.17;;;3.60;;
63110;SDS011;49201;53.426;10.300;2023-05-14T12:20:35;3.90;;;3.50;;
63110;SDS011;49201;53.426;10.300;2023-05-14T12:23:00;4.23;;;3.70;;
63110;SDS011;49201;53.426;10.300;2023-05-14T12:25:26;4.37;;;3.53;;
63110;SDS011;49201;53.426;10.300;2023-05-14T12:27:53;3.70;;;2.93;;
63110;SDS011;49201;53.426;10.300;2023-05-14T12:30:18;3.93;;;3.53;;
63110;SDS011;49201;53.426;10.300;2023-05-14T12:32:44;5.40;;;3.27;;
63110;SDS011;49201;53.426;10.300;2023-05-14T12:35:10;4.07;;;3.30;;
63110;SDS011;49201;53.426;10.300;2023-05-14T12:37:36;5.32;;;3.50;;
63110;SDS011;49201;53.426;10.300;2023-05-14T12:40:04;4.03;;;3.22;;
63110;SDS011;49201;53.426;10.300;2023-05-14T12:42:33;4.27;;;3.10;;
63110;SDS011;49201;53.426;10.300;2023-05-14T12:44:58;4.28;;;3.10;;
63110;SDS011;49201;53.426;10.300;2023-05-14T12:47:29;5.50;;;3.45;;
63110;SDS011;49201;53.426;10.300;2023-05-14T12:49:55;7.07;;;4.03;;
63110;SDS011;49201;53.426;10.300;2023-05-14T12:52:21;3.58;;;3.25;;
63110;SDS011;49201;53.426;10.300;2023-05-14T12:54:46;5.93;;;3.20;;
63110;SDS011;49201;53.426;10.300;2023-05-14T12:57:12;3.65;;;2.70;;
63110;SDS011;49201;53.426;10.300;2023-05-14T12:59:37;6.03;;;3.10;;
63110;SDS011;49201;53.426;10.300;2023-05-14T13:02:03;6.03;;;3.25;;
63110;SDS011;49201;53.426;10.300;2023-05-14T13:04:28;6.78;;;3.65;;
63110;SDS011;49201;53.426;10.300;2023-05-14T13:06:54;3.42;;;2.97;;
63110;SDS011;49201;53.426;10.300;2023-05-14T13:09:20;3.78;;;3.33;;
63110;SDS011;49201;53.426;10.300;2023-05-14T13:11:45;3.85;;;3.33;;
63110;SDS011;49201;53.426;10.300;2023-05-14T13:14:10;3.65;;;2.90;;
63110;SDS011;49201;53.426;10.300;2023-05-14T13:16:36;3.35;;;2.72;;
63110;SDS011;49201;53.426;10.300;2023-05-14T13:19:01;4.07;;;2.50;;
63110;SDS011;49201;53.426;10.300;2023-05-14T13:21:27;5.07;;;2.88;;
63110;SDS011;49201;53.426;10.300;2023-05-14T13:23:52;5.65;;;3.25;;
63110;SDS011;49201;53.426;10.300;2023-05-14T13:26:18;5.82;;;2.97;;
63110;SDS011;49201;53.426;10.300;2023-05-14T13:28:43;10.98;;;10.02;;
63110;SDS011;49201;53.426;10.300;2023-05-14T13:31:10;28.40;;;25.80;;
63110;SDS011;49201;53.426;10.300;2023-05-14T13:33:37;5.63;;;3.33;;
63110;SDS011;49201;53.426;10.300;2023-05-14T13:36:07;4.43;;;2.78;;
63110;SDS011;49201;53.426;10.300;2023-05-14T13:38:33;4.47;;;3.53;;
63110;SDS011;49201;53.426;10.300;2023-05-14T13:40:58;5.18;;;3.20;;
63110;SDS011;49201;53.426;10.300;2023-05-14T13:43:33;5.50;;;3.30;;
63110;SDS011;49201;53.426;10.300;2023-05-14T13:45:59;4.10;;;2.85;;
63110;SDS011;49201;53.426;10.300;2023-05-14T13:48:25;5.25;;;3.38;;
63110;SDS011;49201;53.426;10.300;2023-05-14T13:50:51;6.00;;;3.35;;
63110;SDS011;49201;53.426;10.300;2023-05-14T13:53:18;5.82;;;3.42;;
63110;SDS011;49201;53.426;10.300;2023-05-14T13:55:44;3.97;;;3.25;;
63110;SDS011;49201;53.426;10.300;2023-05-14T13:58:09;5.70;;;3.22;;
63110;SDS011;49201;53.426;10.300;2023-05-14T14:00:35;5.40;;;3.55;;
63110;SDS011;49201;53.426;10.300;2023-05-14T14:03:00;6.40;;;3.97;;
63110;SDS011;49201;53.426;10.300;2023-05-14T14:05:26;6.28;;;3.38;;
63110;SDS011;49201;53.426;10.300;2023-05-14T14:07:52;3.30;;;3.00;;
63110;SDS011;49201;53.426;10.300;2023-05-14T14:10:20;4.38;;;3.22;;
63110;SDS011;49201;53.426;10.300;2023-05-14T14:12:45;4.60;;;3.33;;
63110;SDS011;49201;53.426;10.300;2023-05-14T14:15:11;4.13;;;3.53;;
63110;SDS011;49201;53.426;10.300;2023-05-14T14:17:37;7.63;;;3.58;;
63110;SDS011;49201;53.426;10.300;2023-05-14T14:20:03;4.30;;;3.90;;
63110;SDS011;49201;53.426;10.300;2023-05-14T14:22:30;4.65;;;3.08;;
63110;SDS011;49201;53.426;10.300;2023-05-14T14:24:56;9.27;;;5.50;;
63110;SDS011;49201;53.426;10.300;2023-05-14T14:27:21;9.98;;;4.75;;
63110;SDS011;49201;53.426;10.300;2023-05-14T14:29:46;5.40;;;3.97;;
63110;SDS011;49201;53.426;10.300;2023-05-14T14:32:12;5.30;;;3.53;;
63110;SDS011;49201;53.426;10.300;2023-05-14T14:34:37;5.43;;;4.87;;
63110;SDS011;49201;53.426;10.300;2023-05-14T14:37:03;3.78;;;3.45;;
63110;SDS011;49201;53.426;10.300;2023-05-14T14:39:28;4.78;;;3.38;;
63110;SDS011;49201;53.426;10.300;2023-05-14T14:41:54;5.37;;;3.50;;
63110;SDS011;49201;53.426;10.300;2023-05-14T14:44:19;5.38;;;3.72;;